Time;durP1;ratioP1;P1;durP2;ratioP2;P2;SDS_P1;SDS_P2;PMS_P1;PMS_P2;Temp;Humidity;BMP_temperature;BMP_pressure;BME280_temperature;BME280_humidity;BME280_pressure;Samples;Min_cycle;Max_cycle;Signal;HPM_P1;HPM_P2
2021/01/11 00:00:30;;;;;;;22.90;12.98;;;;;;;;;;5156863;22;20252;-53
2021/01/11 00:03:01;;;;;;;21.40;13.18;;;;;;;;;;5117435;28;20191;-51
2021/01/11 00:05:31;;;;;;;21.30;12.20;;;;;;;;;;5116776;28;20238;-52
2021/01/11 00:07:57;;;;;;;18.95;11.45;;;;;;;;;;5116866;28;20245;-47
2021/01/11 00:10:25;;;;;;;25.48;14.25;;;;;;;;;;5116273;28;20211;-49
2021/01/11 00:12:53;;;;;;;21.67;13.20;;;;;;;;;;5116324;28;20214;-49
2021/01/11 00:15:28;;;;;;;19.65;12.75;;;;;;;;;;5116711;28;20191;-54
2021/01/11 00:18:19;;;;;;;22.55;12.55;;;;;;;;;;5116758;28;20198;-55
2021/01/11 00:20:53;;;;;;;19.92;12.13;;;;;;;;;;5116746;28;20194;-48
2021/01/11 00:23:23;;;;;;;27.83;14.40;;;;;;;;;;5116289;28;20256;-54
2021/01/11 00:25:50;;;;;;;19.33;11.85;;;;;;;;;;5113050;28;20215;-53
2021/01/11 00:28:21;;;;;;;19.63;11.88;;;;;;;;;;5116880;28;20187;-54
2021/01/11 00:30:48;;;;;;;18.27;11.35;;;;;;;;;;5116246;28;20186;-55
2021/01/11 00:36:20;;;;;;;18.70;12.43;;;;;;;;;;5099546;28;20295;-48
2021/01/11 00:38:50;;;;;;;22.52;12.57;;;;;;;;;;5090158;28;20180;-53
2021/01/11 00:41:17;;;;;;;20.15;13.02;;;;;;;;;;5095311;28;20176;-51
2021/01/11 00:43:44;;;;;;;21.80;13.00;;;;;;;;;;5095206;28;20200;-56
2021/01/11 00:46:10;;;;;;;19.20;12.27;;;;;;;;;;5098918;28;20225;-53
2021/01/11 00:48:37;;;;;;;20.70;11.40;;;;;;;;;;5098985;28;20191;-52
2021/01/11 00:51:09;;;;;;;21.90;13.15;;;;;;;;;;5099190;28;20203;-49
2021/01/11 00:53:48;;;;;;;24.10;14.15;;;;;;;;;;5099194;28;20199;-46
2021/01/11 00:56:15;;;;;;;16.55;10.43;;;;;;;;;;5089094;28;20199;-50
2021/01/11 00:58:44;;;;;;;19.98;12.85;;;;;;;;;;5098869;28;20191;-46
2021/01/11 01:01:44;;;;;;;19.13;12.30;;;;;;;;;;5100486;28;20199;-53
2021/01/11 01:04:15;;;;;;;24.73;11.82;;;;;;;;;;5095804;28;20233;-52
2021/01/11 01:06:42;;;;;;;22.63;12.38;;;;;;;;;;5079248;28;20247;-53
2021/01/11 01:09:09;;;;;;;20.05;12.30;;;;;;;;;;5078884;28;20212;-53
2021/01/11 01:11:40;;;;;;;23.42;12.40;;;;;;;;;;5092595;28;20200;-54
2021/01/11 01:14:25;;;;;;;18.52;11.90;;;;;;;;;;5098739;28;20200;-56
2021/01/11 01:16:52;;;;;;;17.58;11.38;;;;;;;;;;5096545;28;20644;-50
2021/01/11 01:19:19;;;;;;;28.23;11.63;;;;;;;;;;5098205;28;20200;-57
2021/01/11 01:22:04;;;;;;;25.20;12.77;;;;;;;;;;5098237;28;20184;-45
2021/01/11 01:24:31;;;;;;;24.80;12.80;;;;;;;;;;5097904;28;20195;-50
2021/01/11 01:26:58;;;;;;;18.67;9.95;;;;;;;;;;5098923;28;20281;-49
2021/01/11 01:29:25;;;;;;;19.52;10.20;;;;;;;;;;5097302;28;20203;-47
2021/01/11 01:31:52;;;;;;;18.05;10.30;;;;;;;;;;5097715;28;20208;-54
2021/01/11 01:34:34;;;;;;;16.83;10.25;;;;;;;;;;5098310;28;20196;-53
2021/01/11 01:37:02;;;;;;;18.00;10.27;;;;;;;;;;5098245;28;20323;-47
2021/01/11 01:39:29;;;;;;;18.25;10.32;;;;;;;;;;5098288;28;20218;-54
2021/01/11 01:41:59;;;;;;;20.52;11.02;;;;;;;;;;5097962;28;20183;-51
2021/01/11 01:44:26;;;;;;;15.25;9.88;;;;;;;;;;5097579;28;20188;-51
2021/01/11 01:46:54;;;;;;;16.33;10.75;;;;;;;;;;5097969;28;20217;-43
2021/01/11 01:49:22;;;;;;;15.60;10.45;;;;;;;;;;5098286;28;20247;-50
2021/01/11 01:51:49;;;;;;;15.65;10.32;;;;;;;;;;5098375;28;20224;-53
2021/01/11 01:54:16;;;;;;;20.30;8.63;;;;;;;;;;5097832;28;20192;-51
2021/01/11 01:56:44;;;;;;;16.05;9.43;;;;;;;;;;5097365;28;20219;-56
2021/01/11 01:59:12;;;;;;;14.43;9.77;;;;;;;;;;5097351;28;20195;-54
2021/01/11 02:02:01;;;;;;;14.00;8.40;;;;;;;;;;5098424;28;20203;-53
2021/01/11 02:04:28;;;;;;;12.25;8.40;;;;;;;;;;5096196;28;20577;-57
2021/01/11 02:06:57;;;;;;;14.38;9.63;;;;;;;;;;5097725;28;20230;-55
2021/01/11 02:09:38;;;;;;;18.33;11.52;;;;;;;;;;5098355;28;20189;-47
2021/01/11 02:12:10;;;;;;;15.75;9.93;;;;;;;;;;5089931;28;20281;-50
2021/01/11 02:14:41;;;;;;;13.90;9.00;;;;;;;;;;5097600;28;20253;-53
2021/01/11 02:17:21;;;;;;;17.30;8.60;;;;;;;;;;5097446;28;20196;-51
2021/01/11 02:20:07;;;;;;;13.80;8.30;;;;;;;;;;5095084;28;20215;-49
2021/01/11 02:23:03;;;;;;;16.15;8.88;;;;;;;;;;5097584;28;20180;-53
2021/01/11 02:25:40;;;;;;;14.65;9.05;;;;;;;;;;5094963;28;20216;-55
2021/01/11 02:28:13;;;;;;;20.50;9.73;;;;;;;;;;5097330;28;20209;-48
2021/01/11 02:30:41;;;;;;;23.65;8.63;;;;;;;;;;5097308;28;20227;-54
2021/01/11 02:33:09;;;;;;;15.05;9.00;;;;;;;;;;5097478;28;20191;-53
2021/01/11 02:35:53;;;;;;;14.95;9.82;;;;;;;;;;5101433;28;20226;-60
2021/01/11 02:38:20;;;;;;;15.52;9.52;;;;;;;;;;5117706;28;20212;-51
2021/01/11 02:43:51;;;;;;;15.00;9.38;;;;;;;;;;5117490;28;20206;-51
2021/01/11 02:46:20;;;;;;;17.60;9.73;;;;;;;;;;5117680;28;20226;-46
2021/01/11 02:49:09;;;;;;;12.35;7.90;;;;;;;;;;5117191;28;20204;-49
2021/01/11 02:51:39;;;;;;;15.20;8.50;;;;;;;;;;5117569;28;20263;-52
2021/01/11 02:54:11;;;;;;;15.70;8.63;;;;;;;;;;5117139;28;20198;-54
2021/01/11 02:57:09;;;;;;;15.90;9.65;;;;;;;;;;5117077;28;20222;-50
2021/01/11 02:59:37;;;;;;;19.00;9.02;;;;;;;;;;5115381;28;20218;-46
2021/01/11 03:02:08;;;;;;;12.00;7.53;;;;;;;;;;5117111;28;20195;-48
2021/01/11 03:04:35;;;;;;;13.80;9.00;;;;;;;;;;5116716;28;20191;-46
2021/01/11 03:07:02;;;;;;;16.50;9.18;;;;;;;;;;5116544;28;20203;-45
2021/01/11 03:09:49;;;;;;;13.07;7.88;;;;;;;;;;5116998;28;20202;-51
2021/01/11 03:12:16;;;;;;;12.88;8.38;;;;;;;;;;5116348;28;20191;-54
2021/01/11 03:14:43;;;;;;;17.70;8.35;;;;;;;;;;5116285;28;20179;-53
2021/01/11 03:17:11;;;;;;;15.35;9.63;;;;;;;;;;5116521;28;20186;-52
2021/01/11 03:19:38;;;;;;;11.90;7.40;;;;;;;;;;5116941;28;20186;-50
2021/01/11 03:22:41;;;;;;;14.35;8.52;;;;;;;;;;5116556;28;20188;-48
2021/01/11 03:25:08;;;;;;;17.55;9.25;;;;;;;;;;5116465;28;20206;-49
2021/01/11 03:27:35;;;;;;;15.10;8.15;;;;;;;;;;5116499;28;20195;-56
2021/01/11 03:30:20;;;;;;;12.25;7.95;;;;;;;;;;5116348;28;20198;-49
2021/01/11 03:32:49;;;;;;;11.02;7.25;;;;;;;;;;5102528;28;20186;-52
2021/01/11 03:35:16;;;;;;;15.15;8.57;;;;;;;;;;5116529;28;20199;-52
2021/01/11 03:38:02;;;;;;;12.90;7.63;;;;;;;;;;5113817;28;20198;-52
2021/01/11 03:40:29;;;;;;;12.10;7.75;;;;;;;;;;5116220;28;20206;-52
2021/01/11 03:42:55;;;;;;;14.70;7.95;;;;;;;;;;5116377;28;20195;-51
2021/01/11 03:45:23;;;;;;;14.10;7.93;;;;;;;;;;5115964;28;20222;-48
2021/01/11 03:47:51;;;;;;;14.07;9.75;;;;;;;;;;5115445;28;20194;-49
2021/01/11 03:50:18;;;;;;;14.57;10.27;;;;;;;;;;5116452;28;20193;-50
2021/01/11 03:52:59;;;;;;;13.23;8.75;;;;;;;;;;5116159;28;20191;-53
2021/01/11 03:55:31;;;;;;;23.70;9.88;;;;;;;;;;5102236;28;20235;-53
2021/01/11 03:57:57;;;;;;;12.55;7.85;;;;;;;;;;5095956;28;20188;-54
2021/01/11 04:00:32;;;;;;;13.50;7.97;;;;;;;;;;5095211;28;20196;-54
2021/01/11 04:03:00;;;;;;;15.10;8.77;;;;;;;;;;5094904;28;20217;-52
2021/01/11 04:05:27;;;;;;;11.48;7.35;;;;;;;;;;5095745;28;20234;-55
2021/01/11 04:08:04;;;;;;;11.60;7.25;;;;;;;;;;5095728;28;20210;-54
2021/01/11 04:10:31;;;;;;;16.08;8.02;;;;;;;;;;5095745;28;20210;-48
2021/01/11 04:12:58;;;;;;;12.52;8.25;;;;;;;;;;5076096;28;20211;-51
2021/01/11 04:18:29;;;;;;;15.93;8.07;;;;;;;;;;5087946;28;20242;-48
2021/01/11 04:20:56;;;;;;;17.63;11.35;;;;;;;;;;5100893;28;20299;-56
2021/01/11 04:23:34;;;;;;;15.52;7.88;;;;;;;;;;5100456;28;20205;-47
2021/01/11 04:26:02;;;;;;;15.45;8.43;;;;;;;;;;5099631;28;20246;-51
2021/01/11 04:28:29;;;;;;;11.07;7.68;;;;;;;;;;5099746;28;20214;-52
2021/01/11 04:30:56;;;;;;;13.05;8.60;;;;;;;;;;5100226;28;20203;-51
2021/01/11 04:33:23;;;;;;;15.18;8.68;;;;;;;;;;5100276;28;20215;-51
2021/01/11 04:35:50;;;;;;;9.27;7.25;;;;;;;;;;5100252;28;20242;-43
2021/01/11 04:38:18;;;;;;;15.75;7.55;;;;;;;;;;5099985;28;20179;-49
2021/01/11 04:40:45;;;;;;;11.68;7.00;;;;;;;;;;5100496;28;20237;-52
2021/01/11 04:43:12;;;;;;;10.98;6.45;;;;;;;;;;5100112;28;20221;-52
2021/01/11 04:45:49;;;;;;;10.48;6.88;;;;;;;;;;5099809;28;20216;-56
2021/01/11 04:48:16;;;;;;;14.88;6.97;;;;;;;;;;5095540;28;20185;-50
2021/01/11 04:50:42;;;;;;;12.13;6.65;;;;;;;;;;5089515;28;20203;-46
2021/01/11 04:53:10;;;;;;;10.73;6.63;;;;;;;;;;5093940;28;20188;-50
2021/01/11 04:55:38;;;;;;;10.38;6.85;;;;;;;;;;5082255;28;20218;-53
2021/01/11 04:58:08;;;;;;;9.18;6.45;;;;;;;;;;5099320;28;20195;-49
2021/01/11 05:00:39;;;;;;;8.40;6.07;;;;;;;;;;5099482;28;20208;-50
2021/01/11 05:03:06;;;;;;;10.55;6.65;;;;;;;;;;5099766;28;20218;-54
2021/01/11 05:05:33;;;;;;;10.18;6.22;;;;;;;;;;5099080;28;20223;-49
2021/01/11 05:08:01;;;;;;;10.43;6.63;;;;;;;;;;5099242;28;20256;-51
2021/01/11 05:10:29;;;;;;;11.40;6.38;;;;;;;;;;5098954;28;20191;-50
2021/01/11 05:12:57;;;;;;;11.35;7.38;;;;;;;;;;5099148;28;20209;-50
2021/01/11 05:15:30;;;;;;;11.80;6.57;;;;;;;;;;5098483;28;20221;-53
2021/01/11 05:17:57;;;;;;;12.32;6.78;;;;;;;;;;5095842;28;20216;-52
2021/01/11 05:20:25;;;;;;;12.65;6.93;;;;;;;;;;5098659;28;20219;-57
2021/01/11 05:25:57;;;;;;;12.15;6.13;;;;;;;;;;5098717;28;20218;-52
2021/01/11 05:28:24;;;;;;;13.23;7.47;;;;;;;;;;5098935;28;20195;-52
2021/01/11 05:31:06;;;;;;;13.93;7.32;;;;;;;;;;5097823;28;20199;-46
2021/01/11 05:33:33;;;;;;;9.65;6.00;;;;;;;;;;5098625;28;20187;-51
2021/01/11 05:36:04;;;;;;;9.45;6.18;;;;;;;;;;5099147;28;20235;-57
2021/01/11 05:38:55;;;;;;;10.20;7.78;;;;;;;;;;5098819;28;20191;-44
2021/01/11 05:41:24;;;;;;;10.43;6.35;;;;;;;;;;5098595;28;20195;-55
2021/01/11 05:44:11;;;;;;;11.23;6.40;;;;;;;;;;5098670;28;20214;-55
2021/01/11 05:47:01;;;;;;;11.30;5.88;;;;;;;;;;5098264;28;20223;-48
2021/01/11 05:49:28;;;;;;;10.25;6.78;;;;;;;;;;5082264;28;20227;-56
2021/01/11 05:51:56;;;;;;;12.73;7.07;;;;;;;;;;5078376;28;20191;-55
2021/01/11 05:54:28;;;;;;;11.48;6.68;;;;;;;;;;5084641;28;20191;-51
2021/01/11 05:56:56;;;;;;;12.43;7.57;;;;;;;;;;5098777;28;20256;-48
2021/01/11 05:59:23;;;;;;;13.35;6.75;;;;;;;;;;5098362;28;20203;-51
2021/01/11 06:02:00;;;;;;;10.88;6.65;;;;;;;;;;5098643;28;20183;-47
2021/01/11 06:04:27;;;;;;;14.68;7.25;;;;;;;;;;5098613;28;20197;-57
2021/01/11 06:06:54;;;;;;;12.57;7.90;;;;;;;;;;5098393;28;20215;-56
2021/01/11 06:09:33;;;;;;;17.00;6.93;;;;;;;;;;5098611;28;20195;-53
2021/01/11 06:12:01;;;;;;;10.68;6.82;;;;;;;;;;5113075;28;20237;-47
2021/01/11 06:14:28;;;;;;;13.32;7.25;;;;;;;;;;5118703;28;20222;-54
2021/01/11 06:16:57;;;;;;;11.35;6.70;;;;;;;;;;5118603;28;20190;-54
2021/01/11 06:19:24;;;;;;;11.98;7.13;;;;;;;;;;5118373;28;20257;-56
2021/01/11 06:21:54;;;;;;;13.00;8.50;;;;;;;;;;5118492;28;20203;-52
2021/01/11 06:24:39;;;;;;;9.68;6.50;;;;;;;;;;5117935;28;20224;-50
2021/01/11 06:27:16;;;;;;;11.40;6.35;;;;;;;;;;5117606;28;20252;-55
2021/01/11 06:29:46;;;;;;;11.95;8.25;;;;;;;;;;5117337;28;20195;-50
2021/01/11 06:32:21;;;;;;;11.70;7.10;;;;;;;;;;5117282;28;20214;-48
2021/01/11 06:34:48;;;;;;;16.60;7.05;;;;;;;;;;5117250;28;20201;-57
2021/01/11 06:37:19;;;;;;;9.55;6.50;;;;;;;;;;5113905;28;20225;-54
2021/01/11 06:39:47;;;;;;;10.80;6.70;;;;;;;;;;5110851;28;20209;-54
2021/01/11 06:42:17;;;;;;;12.10;7.80;;;;;;;;;;5117370;28;20203;-51
2021/01/11 06:44:48;;;;;;;12.13;6.70;;;;;;;;;;5117312;28;20211;-52
2021/01/11 06:47:27;;;;;;;11.63;7.18;;;;;;;;;;5117229;28;20198;-48
2021/01/11 06:49:54;;;;;;;18.00;8.57;;;;;;;;;;5099916;28;20230;-48
2021/01/11 06:52:34;;;;;;;12.88;7.05;;;;;;;;;;5096948;28;20216;-45
2021/01/11 06:55:21;;;;;;;11.68;7.15;;;;;;;;;;5097076;28;20203;-56
2021/01/11 06:57:49;;;;;;;12.40;7.18;;;;;;;;;;5094421;28;20237;-55
2021/01/11 07:00:21;;;;;;;10.45;7.32;;;;;;;;;;5096673;28;20242;-52
2021/01/11 07:02:49;;;;;;;14.88;7.07;;;;;;;;;;5096814;28;20183;-55
2021/01/11 07:05:35;;;;;;;12.77;7.35;;;;;;;;;;5096165;28;20233;-51
2021/01/11 07:08:06;;;;;;;9.63;6.25;;;;;;;;;;5093290;28;20226;-51
2021/01/11 07:10:33;;;;;;;12.75;6.82;;;;;;;;;;5116547;28;20186;-52
2021/01/11 07:16:16;;;;;;;11.93;6.75;;;;;;;;;;5115409;28;20197;-49
2021/01/11 07:18:47;;;;;;;13.38;7.15;;;;;;;;;;5096296;28;20212;-49
2021/01/11 07:21:15;;;;;;;15.68;7.43;;;;;;;;;;5076098;28;20265;-52
2021/01/11 07:23:45;;;;;;;14.52;6.63;;;;;;;;;;5076688;28;20208;-56
2021/01/11 07:26:14;;;;;;;12.15;6.85;;;;;;;;;;5081450;28;20204;-55
2021/01/11 07:28:51;;;;;;;12.35;6.95;;;;;;;;;;5096088;28;20207;-53
2021/01/11 07:31:27;;;;;;;13.10;7.45;;;;;;;;;;5096300;28;20188;-48
2021/01/11 07:33:54;;;;;;;11.02;6.22;;;;;;;;;;5095753;28;20184;-54
2021/01/11 07:36:22;;;;;;;12.55;6.82;;;;;;;;;;5096307;28;20204;-55
2021/01/11 07:39:11;;;;;;;13.13;7.65;;;;;;;;;;5095586;28;20191;-52
2021/01/11 07:41:39;;;;;;;10.63;6.53;;;;;;;;;;5093334;28;20217;-55
2021/01/11 07:44:16;;;;;;;9.15;6.45;;;;;;;;;;5095688;28;20237;-56
2021/01/11 07:46:44;;;;;;;14.90;7.97;;;;;;;;;;5095295;28;20242;-50
2021/01/11 07:49:17;;;;;;;13.50;7.07;;;;;;;;;;5095890;28;20215;-50
2021/01/11 07:51:44;;;;;;;11.25;7.28;;;;;;;;;;5095559;28;20550;-49
2021/01/11 07:54:14;;;;;;;9.45;5.80;;;;;;;;;;5094796;28;20237;-55
2021/01/11 07:56:40;;;;;;;12.40;7.40;;;;;;;;;;5096161;28;20230;-55
2021/01/11 07:59:08;;;;;;;17.63;11.40;;;;;;;;;;5094748;28;20199;-54
2021/01/11 08:01:41;;;;;;;12.10;7.10;;;;;;;;;;5094279;28;20198;-58
2021/01/11 08:04:10;;;;;;;11.43;7.28;;;;;;;;;;5095130;28;20187;-48
2021/01/11 08:07:02;;;;;;;12.88;8.27;;;;;;;;;;5094655;28;20338;-56
2021/01/11 08:09:30;;;;;;;13.23;8.70;;;;;;;;;;5094207;28;20199;-56
2021/01/11 08:12:07;;;;;;;10.13;6.70;;;;;;;;;;5094846;28;20233;-51
2021/01/11 08:14:43;;;;;;;12.02;9.05;;;;;;;;;;5093978;28;20184;-54
2021/01/11 08:17:13;;;;;;;15.82;8.70;;;;;;;;;;5094705;28;20194;-59
2021/01/11 08:19:41;;;;;;;15.07;7.30;;;;;;;;;;5076322;28;20208;-58
2021/01/11 08:22:33;;;;;;;12.95;7.53;;;;;;;;;;5075067;28;20204;-51
2021/01/11 08:25:00;;;;;;;16.15;6.55;;;;;;;;;;5091181;28;20188;-56
2021/01/11 08:27:31;;;;;;;12.00;6.68;;;;;;;;;;5096195;28;20191;-49
2021/01/11 08:33:07;;;;;;;13.55;7.68;;;;;;;;;;5094357;28;20237;-57
2021/01/11 08:35:35;;;;;;;9.77;6.53;;;;;;;;;;5075930;28;20196;-50
2021/01/11 08:38:05;;;;;;;9.05;6.65;;;;;;;;;;5075012;28;20215;-54
2021/01/11 08:40:33;;;;;;;12.15;6.70;;;;;;;;;;5076280;28;20210;-55
2021/01/11 08:43:09;;;;;;;11.75;6.63;;;;;;;;;;5076583;28;20177;-52
2021/01/11 08:45:38;;;;;;;10.38;6.10;;;;;;;;;;5076186;28;20250;-52
2021/01/11 08:48:05;;;;;;;14.68;7.95;;;;;;;;;;5076283;28;20192;-51
2021/01/11 08:50:58;;;;;;;21.38;10.40;;;;;;;;;;5076162;28;20187;-55
2021/01/11 08:53:26;;;;;;;16.60;8.05;;;;;;;;;;5090239;28;20234;-50
2021/01/11 08:55:56;;;;;;;13.77;7.07;;;;;;;;;;5096276;28;20271;-57
2021/01/11 08:58:47;;;;;;;13.63;7.95;;;;;;;;;;5094138;28;20260;-56
2021/01/11 09:01:15;;;;;;;10.77;6.90;;;;;;;;;;5095629;28;20263;-49
2021/01/11 09:03:43;;;;;;;9.40;6.38;;;;;;;;;;5096063;28;20183;-48
2021/01/11 09:06:38;;;;;;;12.93;7.00;;;;;;;;;;5098046;28;20242;-51
2021/01/11 09:09:07;;;;;;;12.63;5.90;;;;;;;;;;5100340;28;20195;-46
2021/01/11 09:11:40;;;;;;;10.45;5.70;;;;;;;;;;5099836;28;20200;-53
2021/01/11 09:14:08;;;;;;;10.48;6.18;;;;;;;;;;5099591;28;20226;-47
2021/01/11 09:16:35;;;;;;;9.98;5.72;;;;;;;;;;5099584;28;20249;-54
2021/01/11 09:19:26;;;;;;;8.65;6.10;;;;;;;;;;5099882;28;20197;-49
2021/01/11 09:22:05;;;;;;;14.35;5.90;;;;;;;;;;5099655;28;20234;-51
2021/01/11 09:24:43;;;;;;;8.75;5.20;;;;;;;;;;5099428;28;20214;-55
2021/01/11 09:27:19;;;;;;;9.80;6.78;;;;;;;;;;5099244;28;20223;-46
2021/01/11 09:30:25;;;;;;;12.45;6.43;;;;;;;;;;5099363;28;20194;-56
2021/01/11 09:32:52;;;;;;;7.90;5.07;;;;;;;;;;5099574;28;20238;-55
2021/01/11 09:35:19;;;;;;;8.05;5.65;;;;;;;;;;5100133;28;20201;-51
2021/01/11 09:37:48;;;;;;;9.45;5.50;;;;;;;;;;5099851;28;20234;-47
2021/01/11 09:40:16;;;;;;;12.63;5.90;;;;;;;;;;5099726;28;20234;-57
2021/01/11 09:43:03;;;;;;;11.52;5.50;;;;;;;;;;5099555;28;20176;-55
2021/01/11 09:45:30;;;;;;;14.10;8.30;;;;;;;;;;5099453;28;20346;-48
2021/01/11 09:47:57;;;;;;;11.15;6.80;;;;;;;;;;5099627;28;20234;-51
2021/01/11 09:50:25;;;;;;;9.13;6.07;;;;;;;;;;5099047;28;20216;-53
2021/01/11 09:52:54;;;;;;;11.98;7.47;;;;;;;;;;5098471;28;20205;-54
2021/01/11 09:55:21;;;;;;;9.80;5.70;;;;;;;;;;5099053;28;20215;-47
2021/01/11 10:00:52;;;;;;;10.40;6.35;;;;;;;;;;5098385;28;20187;-53
2021/01/11 10:03:19;;;;;;;9.88;5.70;;;;;;;;;;5098752;28;20196;-51
2021/01/11 10:05:55;;;;;;;12.00;5.78;;;;;;;;;;5098823;28;20216;-53
2021/01/11 10:08:26;;;;;;;10.13;5.53;;;;;;;;;;5098933;28;20193;-58
2021/01/11 10:10:53;;;;;;;8.07;5.05;;;;;;;;;;5098750;28;20215;-52
2021/01/11 10:13:21;;;;;;;11.75;6.22;;;;;;;;;;5098575;28;20214;-50
2021/01/11 10:15:48;;;;;;;6.70;4.82;;;;;;;;;;5098884;28;20204;-58
2021/01/11 10:18:15;;;;;;;13.38;6.30;;;;;;;;;;5098332;28;20191;-51
2021/01/11 10:20:43;;;;;;;9.95;5.70;;;;;;;;;;5097892;28;20264;-53
2021/01/11 10:23:11;;;;;;;9.43;5.13;;;;;;;;;;5098323;28;20204;-51
2021/01/11 10:25:39;;;;;;;11.40;7.07;;;;;;;;;;5097455;28;20224;-57
2021/01/11 10:28:19;;;;;;;12.40;5.95;;;;;;;;;;5096599;28;20197;-52
2021/01/11 10:30:46;;;;;;;13.05;5.32;;;;;;;;;;5097996;28;20291;-54
2021/01/11 10:33:14;;;;;;;8.48;4.80;;;;;;;;;;5116418;28;20266;-55
2021/01/11 10:35:49;;;;;;;12.05;5.72;;;;;;;;;;5118318;28;20214;-56
2021/01/11 10:38:16;;;;;;;11.02;5.53;;;;;;;;;;5117912;28;20202;-54
2021/01/11 10:40:45;;;;;;;7.50;4.57;;;;;;;;;;5132754;28;20203;-55
2021/01/11 10:43:32;;;;;;;8.13;5.68;;;;;;;;;;5138877;28;20207;-51
2021/01/11 10:45:59;;;;;;;12.07;5.70;;;;;;;;;;5138544;28;20214;-52
2021/01/11 10:48:26;;;;;;;8.52;5.60;;;;;;;;;;5138474;28;20203;-51
2021/01/11 10:50:55;;;;;;;8.63;5.10;;;;;;;;;;5138187;28;20249;-54
2021/01/11 10:53:22;;;;;;;11.80;6.30;;;;;;;;;;5138336;28;20228;-55
2021/01/11 10:55:52;;;;;;;8.27;5.60;;;;;;;;;;5138327;28;20198;-56
2021/01/11 10:58:30;;;;;;;10.70;6.40;;;;;;;;;;5137838;28;20243;-49
2021/01/11 11:00:57;;;;;;;10.23;6.45;;;;;;;;;;5137682;28;20182;-50
2021/01/11 11:03:26;;;;;;;14.02;6.13;;;;;;;;;;5118195;28;20240;-56
2021/01/11 11:09:01;;;;;;;10.65;6.75;;;;;;;;;;5116582;28;20197;-51
2021/01/11 11:11:29;;;;;;;9.55;5.88;;;;;;;;;;5096956;28;20212;-55
2021/01/11 11:13:57;;;;;;;10.52;6.45;;;;;;;;;;5097416;28;20276;-55
2021/01/11 11:16:24;;;;;;;11.23;6.25;;;;;;;;;;5097791;28;20192;-52
2021/01/11 11:19:01;;;;;;;16.13;5.80;;;;;;;;;;5097491;28;20177;-56
2021/01/11 11:21:27;;;;;;;10.82;6.43;;;;;;;;;;5097167;28;20195;-49
2021/01/11 11:23:54;;;;;;;10.57;6.55;;;;;;;;;;5114337;28;20190;-54
2021/01/11 11:26:21;;;;;;;7.15;5.55;;;;;;;;;;5117108;28;20234;-53
2021/01/11 11:28:49;;;;;;;11.32;6.25;;;;;;;;;;5117051;28;20187;-57
2021/01/11 11:31:45;;;;;;;9.35;5.78;;;;;;;;;;5116650;28;20175;-55
2021/01/11 11:34:13;;;;;;;9.05;6.13;;;;;;;;;;5097189;28;20196;-53
2021/01/11 11:36:41;;;;;;;9.75;6.22;;;;;;;;;;5097070;28;20187;-55
2021/01/11 11:39:14;;;;;;;11.77;6.90;;;;;;;;;;5096456;28;20243;-51
2021/01/11 11:41:47;;;;;;;10.35;6.82;;;;;;;;;;5094719;28;20223;-53
2021/01/11 11:44:15;;;;;;;12.38;6.82;;;;;;;;;;5095818;28;20203;-52
2021/01/11 11:46:54;;;;;;;9.40;5.38;;;;;;;;;;5095952;28;20300;-56
2021/01/11 11:49:25;;;;;;;11.13;6.13;;;;;;;;;;5094520;28;20185;-50
2021/01/11 11:51:53;;;;;;;11.27;7.38;;;;;;;;;;5075395;28;20193;-54
2021/01/11 11:54:44;;;;;;;11.45;7.70;;;;;;;;;;5082325;28;20204;-56
2021/01/11 11:57:11;;;;;;;9.02;5.90;;;;;;;;;;5082127;28;20196;-51
2021/01/11 12:02:43;;;;;;;8.65;6.20;;;;;;;;;;5074633;28;20185;-56
2021/01/11 12:07:58;;;;;;;10.13;6.75;;;;;;;;;;5078497;28;20211;-56
2021/01/11 12:10:30;;;;;;;10.25;6.93;;;;;;;;;;5094187;28;20196;-53
2021/01/11 12:13:04;;;;;;;12.60;7.68;;;;;;;;;;5089602;28;20197;-56
2021/01/11 12:15:42;;;;;;;10.48;6.00;;;;;;;;;;5082221;28;20247;-57
2021/01/11 12:18:18;;;;;;;13.23;6.75;;;;;;;;;;5111647;28;20225;-54
2021/01/11 12:20:51;;;;;;;11.27;7.22;;;;;;;;;;5135276;28;20230;-53
2021/01/11 12:26:27;;;;;;;10.02;6.22;;;;;;;;;;5123692;28;20248;-52
2021/01/11 12:29:17;;;;;;;9.80;6.20;;;;;;;;;;5087791;28;20412;-56
2021/01/11 12:31:47;;;;;;;9.25;6.68;;;;;;;;;;5105977;28;20212;-54
2021/01/11 12:34:18;;;;;;;9.20;5.75;;;;;;;;;;5114169;28;20179;-46
2021/01/11 12:36:53;;;;;;;10.98;5.20;;;;;;;;;;5114276;28;20204;-52
2021/01/11 12:39:37;;;;;;;9.13;5.80;;;;;;;;;;5107193;28;20329;-57
2021/01/11 12:42:12;;;;;;;12.60;6.93;;;;;;;;;;5109109;28;20203;-52
2021/01/11 12:45:03;;;;;;;;;;;;;;;;;;;;;
2021/01/11 12:56:57;;;;;;;13.48;6.18;;;;;;;;;;5097203;28;20280;-56
2021/01/11 12:59:36;;;;;;;16.27;6.90;;;;;;;;;;5098047;28;20263;-52
2021/01/11 13:02:20;;;;;;;9.40;5.25;;;;;;;;;;5098357;28;20478;-55
2021/01/11 13:07:59;;;;;;;8.40;5.85;;;;;;;;;;5079337;28;20192;-59
2021/01/11 13:10:28;;;;;;;8.18;5.32;;;;;;;;;;5076172;28;20213;-53
2021/01/11 13:12:55;;;;;;;6.15;4.45;;;;;;;;;;5078445;28;20208;-51
2021/01/11 13:15:50;;;;;;;10.05;5.00;;;;;;;;;;5077394;28;20208;-52
2021/01/11 13:18:24;;;;;;;9.43;5.80;;;;;;;;;;5093011;28;20240;-54
2021/01/11 13:20:52;;;;;;;10.35;6.20;;;;;;;;;;5097995;28;20228;-49
2021/01/11 13:23:31;;;;;;;10.23;5.80;;;;;;;;;;5081924;28;20213;-55
2021/01/11 13:25:58;;;;;;;10.80;5.60;;;;;;;;;;5115320;28;20227;-53
2021/01/11 13:28:32;;;;;;;11.68;7.03;;;;;;;;;;5100492;28;20206;-58
2021/01/11 13:31:08;;;;;;;10.48;6.03;;;;;;;;;;5114952;28;20283;-55
2021/01/11 13:33:41;;;;;;;11.00;7.03;;;;;;;;;;5116822;28;20203;-54
2021/01/11 13:36:14;;;;;;;10.57;6.20;;;;;;;;;;5113960;28;20208;-57
2021/01/11 13:39:07;;;;;;;13.35;7.43;;;;;;;;;;5105967;28;20242;-59
2021/01/11 13:41:45;;;;;;;8.63;5.18;;;;;;;;;;5115973;28;20208;-56
2021/01/11 13:44:24;;;;;;;9.30;5.03;;;;;;;;;;5116764;28;20232;-55
2021/01/11 13:46:58;;;;;;;8.85;6.57;;;;;;;;;;5117534;28;20238;-55
2021/01/11 13:49:28;;;;;;;12.20;5.75;;;;;;;;;;5097124;28;20213;-53
2021/01/11 13:54:39;;;;;;;14.07;7.05;;;;;;;;;;5108923;28;20196;-53
2021/01/11 13:57:06;;;;;;;10.57;6.95;;;;;;;;;;5116700;28;20202;-57
2021/01/11 13:59:48;;;;;;;7.93;5.82;;;;;;;;;;5116692;28;20203;-53
2021/01/11 14:02:18;;;;;;;9.13;6.05;;;;;;;;;;5116758;28;20265;-54
2021/01/11 14:05:11;;;;;;;16.30;14.65;;;;;;;;;;5111369;28;20188;-50
2021/01/11 14:07:49;;;;;;;14.50;10.63;;;;;;;;;;5111010;28;20281;-57
2021/01/11 14:10:18;;;;;;;11.35;7.65;;;;;;;;;;5116152;28;20579;-58
2021/01/11 14:16:21;;;;;;;9.27;5.97;;;;;;;;;;5107105;28;20227;-58
2021/01/11 14:22:21;;;;;;;10.70;7.10;;;;;;;;;;5019061;28;20256;-56
2021/01/11 14:25:05;;;;;;;13.45;8.20;;;;;;;;;;5077239;28;20247;-49
2021/01/11 14:27:53;;;;;;;12.85;7.63;;;;;;;;;;5096024;28;20248;-52
2021/01/11 14:30:40;;;;;;;10.85;6.78;;;;;;;;;;5096859;28;20193;-55
2021/01/11 14:33:25;;;;;;;13.57;6.93;;;;;;;;;;5075922;28;20216;-52
2021/01/11 14:35:53;;;;;;;15.02;7.75;;;;;;;;;;5082955;28;20212;-59
2021/01/11 14:38:22;;;;;;;12.32;7.68;;;;;;;;;;5094829;28;20196;-49
2021/01/11 14:40:57;;;;;;;13.70;7.40;;;;;;;;;;5077272;28;20200;-54
2021/01/11 14:43:32;;;;;;;12.20;8.70;;;;;;;;;;5095939;28;20191;-56
2021/01/11 14:46:09;;;;;;;16.42;10.98;;;;;;;;;;5094686;28;20228;-53
2021/01/11 14:48:38;;;;;;;11.95;8.85;;;;;;;;;;5095162;28;20204;-52
2021/01/11 14:53:53;;;;;;;13.70;7.45;;;;;;;;;;5084400;28;20219;-52
2021/01/11 14:56:24;;;;;;;13.23;8.50;;;;;;;;;;5095925;28;20213;-53
2021/01/11 14:59:14;;;;;;;9.10;7.10;;;;;;;;;;5095919;28;20208;-53
2021/01/11 15:01:50;;;;;;;10.95;7.30;;;;;;;;;;5096109;28;20192;-55
2021/01/11 15:07:23;;;;;;;12.90;7.47;;;;;;;;;;5093927;28;20231;-52
2021/01/11 15:09:53;;;;;;;11.93;6.55;;;;;;;;;;5093112;28;20213;-55
2021/01/11 15:15:30;;;;;;;9.55;6.45;;;;;;;;;;5092745;28;20233;-55
2021/01/11 15:20:44;;;;;;;11.60;7.38;;;;;;;;;;5099670;28;20239;-57
2021/01/11 15:23:14;;;;;;;15.95;7.90;;;;;;;;;;5094499;28;20232;-54
2021/01/11 15:29:10;;;;;;;10.02;6.85;;;;;;;;;;5094237;28;20187;-58
2021/01/11 15:34:49;;;;;;;12.10;7.65;;;;;;;;;;5088555;28;20244;-58
2021/01/11 15:37:26;;;;;;;11.60;7.20;;;;;;;;;;5102333;28;20201;-53
2021/01/11 15:40:24;;;;;;;11.40;7.40;;;;;;;;;;5073885;28;20209;-58
2021/01/11 15:43:03;;;;;;;12.88;7.40;;;;;;;;;;5056688;28;20208;-51
2021/01/11 15:45:53;;;;;;;11.35;7.70;;;;;;;;;;5073829;28;20193;-53
2021/01/11 15:48:33;;;;;;;;;;;;;;;;;;;;;
2021/01/11 15:51:18;;;;;;;11.50;7.40;;;;;;;;;;5082041;28;20233;-47
2021/01/11 15:54:08;;;;;;;14.18;9.23;;;;;;;;;;5085552;28;20209;-55
2021/01/11 16:00:07;;;;;;;9.65;5.80;;;;;;;;;;5091127;28;20250;-51
2021/01/11 16:02:49;;;;;;;12.65;7.90;;;;;;;;;;5087196;28;20204;-57
2021/01/11 16:05:28;;;;;;;12.23;7.70;;;;;;;;;;5093064;28;20234;-55
2021/01/11 16:07:54;;;;;;;17.20;9.57;;;;;;;;;;5094265;28;20222;-56
2021/01/11 16:10:33;;;;;;;16.08;8.93;;;;;;;;;;5086212;28;20211;-54
2021/01/11 16:13:10;;;;;;;11.48;6.93;;;;;;;;;;5084479;28;20291;-54
2021/01/11 16:18:35;;;;;;;9.20;6.57;;;;;;;;;;5093598;28;20288;-55
2021/01/11 16:21:04;;;;;;;12.35;6.95;;;;;;;;;;5108342;28;20190;-58
2021/01/11 16:23:43;;;;;;;9.68;6.60;;;;;;;;;;5113128;28;20199;-53
2021/01/11 16:29:06;;;;;;;9.68;6.95;;;;;;;;;;5092755;28;20222;-54